AirNav   Bose ProFlight Series 2 Headset
 
 2071 users online  

68AK Cowell's Heliport
Big Lake, Alaska, USA

GOING TO BIG LAKE?


FAA INFORMATION EFFECTIVE 02 JANUARY 2020

Location

FAA Identifier: 68AK
Lat/Long: 61-30-59.6900N 149-55-51.8900W
61-30.994833N 149-55.864833W
61.5165806,-149.9310806
(estimated)
Elevation: 142 ft. / 43 m (estimated)
From city: 4 miles SW of BIG LAKE, AK
Time zone: UTC -9 (UTC -8 during Daylight Saving Time)
Zip code: 99652

Heliport Operations

Heliport use: Private use. Permission required prior to landing
Activation date: 07/2004
Control tower: no
ARTCC: ANCHORAGE CENTER
FSS: KENAI FLIGHT SERVICE STATION [907-283-7211]
Attendance: UNATNDD
Segmented circle: no

Heliport Communications

CTAF: 122.8
WX AWOS-3P at IYS (12 nm E): 135.25 (907-373-3801)
WX AWOS-3P at BCV (14 nm SE): 135.55 (907-688-0826)
WX ASOS at FRN (17 nm SE): 134.25
WX ASOS at MRI (18 nm S): 124.25 (907-271-5277)
WX ASOS at LHD (20 nm S): PHONE 907-245-5432

Nearby radio navigation aids

VOR radial/distance  VOR name  Freq  Var
BGQr143/3.3BIG LAKE VORTAC112.5019E
TEDr344/20.9ANCHORAGE VOR/DME113.1518E

 
NDB name  Hdg/Dist  Freq  Var  ID
CAMPBELL LAKE353/21.033816ECMQ -.-. -- --.-

Heliport Services

Runway Information

Helipad H1

Dimensions: 20 x 20 ft. / 6 x 6 m
Surface: wood
Traffic pattern: leftleft

Heliport Ownership and Management from official FAA records

Ownership: Privately-owned
Owner: FULLER A. COWELL
927 1ST STREET
FAIRBANKS, AK 99701
Phone (907) 227-7333
Manager: FULLER A. COWELL
927 1ST STREET
FAIRBANKS, AK 99701
Phone (907) 227-7333

Heliport Operational Statistics

Aircraft based on the field: 1
Helicopters: 1
    

Instrument Procedures

There are no published instrument procedures at 68AK.

Some nearby airports with instrument procedures:

PAGQ - Big Lake Airport (4 nm E)
PAWS - Wasilla Airport (12 nm E)
PAUO - Willow Airport (15 nm N)
PAED - Elmendorf Air Force Base (16 nm S)
PAFR - Bryant Army Airfield Heliport (17 nm SE)
PAMR - Merrill Field Airport (18 nm S)
 
Loc | Ops | Rwys | IFR | FBO | Links
Com | Nav | Svcs | Stats | Notes

Crowley
 
Area around 68AK (Cowell's Heliport)
 
Road maps at: MapQuest Bing Google
 
Aerial photo
No photo
 
Sectional chart

 
Airport distance calculator
Flying to Cowell's Heliport? Find the distance to fly.

From to 68AK

Sunrise and sunset
Times for 21-Jan-2020
 Local
(UTC-9)
 Zulu
(UTC)
Morning civil twilight08:5417:54
Sunrise09:4918:49
Sunset16:3401:34
Evening civil twilight17:2802:28

Current date and time
Zulu (UTC)  21-Jan-2020 14:28:21
Local (UTC-9)  21-Jan-2020 05:28:21
 
METAR
PABV 
13nm SE 
211356Z AUTO 10003KT 10SM OVC049 M11/M12 A2951 RMK AO2 SNE22 SLP001 P0000 T11111122 FZRANO
PAED 
16nm S 
211356Z AUTO 00000KT 10SM SCT090 M13/M15 A2949 RMK AO2 SLP985 T11291149 $
PAFR 
17nm SE 
211358Z AUTO 00000KT 10SM OVC100 M12/M14 A2945 RMK AO2 SLP985 T11221137 FZRANO $
PAMR 
18nm S 
211353Z 00000KT 10SM FEW006 FEW050 OVC130 M13/M16 A2950 RMK AO2 SLP992 I1000 T11281156 $
PALH 
20nm S 
211353Z 00000KT 1 1/2SM BKN120 M11/M13 A2952 RMK AO2 SFC VIS 10 SLP995 T11061128
PANC 
21nm S 
211353Z 33004KT 10SM FEW010 SCT120 M09/M12 A2950 RMK AO2 SLP993 T10891117
PAAQ 
25nm E 
211411Z AUTO 35007KT 3SM -SN BR SCT024 OVC055 M09/M12 A2948 RMK AO2 P0000 T10941117 TSNO
TAF
PAED 
16nm S 
210300Z 2103/2209 VRB06KT 4800 -SN BR BKN020 620123 QNH2935INS TEMPO 2103/2108 3200 -SN BR BKN012 620083 BECMG 2110/2111 VRB06KT 9999 NSW BKN015 610153 QNH2938INS BECMG 2203/2204 VRB06KT 4800 -SN BKN012 620123 QNH2940INS TXM06/2201Z TNM19/2114Z
NOTAMs
Click for the latest NOTAMs
NOTAMs are issued by the DoD/FAA and will open in a separate window not controlled by AirNav.

 

 
 

Would you like to see your business listed on this page?

 If your business provides an interesting product or service to pilots, flight crews, aircraft, or users of the Cowell's Heliport, you should consider listing it here.  To start the listing process, click on the button below
 
Add a business
 

Other Pages about Cowell's Heliport

Update a link
 
Copyright © AirNav, LLC. All rights reserved. Privacy Policy  Contact